sensor_id;sensor_type;location;lat;lon;timestamp;pressure;altitude;pressure_sealevel;temperature;humidity
71697;BME280;68167;59.120;37.898;2023-04-27T00:00:30;99006.16;;;10.93;76.56
71697;BME280;68167;59.120;37.898;2023-04-27T00:02:57;99036.81;;;11.19;76.88
71697;BME280;68167;59.120;37.898;2023-04-27T00:05:24;99042.19;;;11.14;76.63
71697;BME280;68167;59.120;37.898;2023-04-27T00:07:50;99025.00;;;11.02;77.12
71697;BME280;68167;59.120;37.898;2023-04-27T00:10:17;99024.19;;;11.01;77.00
71697;BME280;68167;59.120;37.898;2023-04-27T00:12:45;99003.53;;;10.88;76.94
71697;BME280;68167;59.120;37.898;2023-04-27T00:15:12;99052.75;;;11.25;76.75
71697;BME280;68167;59.120;37.898;2023-04-27T00:17:38;99062.91;;;11.22;76.51
71697;BME280;68167;59.120;37.898;2023-04-27T00:20:05;99009.84;;;10.97;76.65
71697;BME280;68167;59.120;37.898;2023-04-27T00:22:34;99044.00;;;11.19;76.70
71697;BME280;68167;59.120;37.898;2023-04-27T00:25:00;99060.44;;;11.31;76.72
71697;BME280;68167;59.120;37.898;2023-04-27T00:27:27;99056.69;;;11.32;76.69
71697;BME280;68167;59.120;37.898;2023-04-27T00:29:53;99018.00;;;11.06;76.77
71697;BME280;68167;59.120;37.898;2023-04-27T00:32:20;99039.25;;;11.16;77.04
71697;BME280;68167;59.120;37.898;2023-04-27T00:34:48;99043.72;;;11.20;77.24
71697;BME280;68167;59.120;37.898;2023-04-27T00:37:15;99013.03;;;10.99;77.32
71697;BME280;68167;59.120;37.898;2023-04-27T00:39:41;99037.13;;;11.13;76.79
71697;BME280;68167;59.120;37.898;2023-04-27T00:42:08;99046.13;;;11.22;77.10
71697;BME280;68167;59.120;37.898;2023-04-27T00:44:38;98993.97;;;10.82;77.13
71697;BME280;68167;59.120;37.898;2023-04-27T00:47:05;99025.50;;;11.04;77.21
71697;BME280;68167;59.120;37.898;2023-04-27T00:49:32;99044.28;;;11.17;77.02
71697;BME280;68167;59.120;37.898;2023-04-27T00:51:58;99027.59;;;11.07;77.06
71697;BME280;68167;59.120;37.898;2023-04-27T00:54:25;99041.09;;;11.15;76.96
71697;BME280;68167;59.120;37.898;2023-04-27T00:56:52;99033.91;;;11.16;76.50
71697;BME280;68167;59.120;37.898;2023-04-27T00:59:18;99088.28;;;11.49;77.01
71697;BME280;68167;59.120;37.898;2023-04-27T01:01:45;99050.09;;;11.25;76.57
71697;BME280;68167;59.120;37.898;2023-04-27T01:04:12;99053.28;;;11.27;76.46
71697;BME280;68167;59.120;37.898;2023-04-27T01:06:38;99073.63;;;11.46;76.53
71697;BME280;68167;59.120;37.898;2023-04-27T01:09:05;99089.88;;;11.50;76.79
71697;BME280;68167;59.120;37.898;2023-04-27T01:11:32;99082.38;;;11.52;76.68
71697;BME280;68167;59.120;37.898;2023-04-27T01:14:02;99056.41;;;11.34;76.24
71697;BME280;68167;59.120;37.898;2023-04-27T01:16:30;99099.41;;;11.56;76.34
71697;BME280;68167;59.120;37.898;2023-04-27T01:18:58;99082.22;;;11.38;76.28
71697;BME280;68167;59.120;37.898;2023-04-27T01:21:24;99108.56;;;11.45;76.34
71697;BME280;68167;59.120;37.898;2023-04-27T01:23:52;99056.59;;;11.08;76.60
71697;BME280;68167;59.120;37.898;2023-04-27T01:26:18;99087.16;;;11.21;76.48
71697;BME280;68167;59.120;37.898;2023-04-27T01:28:48;99116.34;;;11.36;76.49
71697;BME280;68167;59.120;37.898;2023-04-27T01:31:14;99066.53;;;11.03;76.66
71697;BME280;68167;59.120;37.898;2023-04-27T01:33:41;99068.59;;;11.06;76.95
71697;BME280;68167;59.120;37.898;2023-04-27T01:36:08;99117.16;;;11.37;76.78
71697;BME280;68167;59.120;37.898;2023-04-27T01:38:35;99028.06;;;10.80;76.73
71697;BME280;68167;59.120;37.898;2023-04-27T01:41:05;99111.84;;;11.32;76.36
71697;BME280;68167;59.120;37.898;2023-04-27T01:43:35;99080.53;;;11.13;76.70
71697;BME280;68167;59.120;37.898;2023-04-27T01:46:09;99069.41;;;11.06;76.58
71697;BME280;68167;59.120;37.898;2023-04-27T01:48:37;99106.81;;;11.30;76.78
71697;BME280;68167;59.120;37.898;2023-04-27T01:51:04;99098.56;;;11.27;76.66
71697;BME280;68167;59.120;37.898;2023-04-27T01:53:32;99079.19;;;11.16;76.31
71697;BME280;68167;59.120;37.898;2023-04-27T01:55:59;99116.03;;;11.43;76.59
71697;BME280;68167;59.120;37.898;2023-04-27T01:58:27;99073.06;;;11.15;76.75
71697;BME280;68167;59.120;37.898;2023-04-27T02:00:53;99069.88;;;11.13;76.34
71697;BME280;68167;59.120;37.898;2023-04-27T02:03:20;99084.72;;;11.25;76.37
71697;BME280;68167;59.120;37.898;2023-04-27T02:05:50;99109.44;;;11.35;76.45
71697;BME280;68167;59.120;37.898;2023-04-27T02:08:16;99123.78;;;11.39;76.63
71697;BME280;68167;59.120;37.898;2023-04-27T02:10:44;99121.44;;;11.33;76.60
71697;BME280;68167;59.120;37.898;2023-04-27T02:13:10;99124.91;;;11.33;76.23
71697;BME280;68167;59.120;37.898;2023-04-27T02:15:37;99096.81;;;11.12;76.43
71697;BME280;68167;59.120;37.898;2023-04-27T02:18:04;99110.28;;;11.26;76.64
71697;BME280;68167;59.120;37.898;2023-04-27T02:20:32;99132.56;;;11.40;76.68
71697;BME280;68167;59.120;37.898;2023-04-27T02:23:00;99112.94;;;11.31;76.62
71697;BME280;68167;59.120;37.898;2023-04-27T02:25:28;99119.84;;;11.32;76.88
71697;BME280;68167;59.120;37.898;2023-04-27T02:27:54;99058.56;;;10.98;76.78
71697;BME280;68167;59.120;37.898;2023-04-27T02:30:21;99082.97;;;11.10;76.47
71697;BME280;68167;59.120;37.898;2023-04-27T02:32:48;99119.13;;;11.21;76.63
71697;BME280;68167;59.120;37.898;2023-04-27T02:35:14;99138.53;;;11.27;76.59
71697;BME280;68167;59.120;37.898;2023-04-27T02:37:41;99086.81;;;10.94;76.67
71697;BME280;68167;59.120;37.898;2023-04-27T02:40:08;99135.06;;;11.26;77.08
71697;BME280;68167;59.120;37.898;2023-04-27T02:42:35;99144.91;;;11.31;77.09
71697;BME280;68167;59.120;37.898;2023-04-27T02:45:06;99123.09;;;11.23;76.61
71697;BME280;68167;59.120;37.898;2023-04-27T02:47:33;99136.66;;;11.27;76.96
71697;BME280;68167;59.120;37.898;2023-04-27T02:50:00;99147.28;;;11.32;76.86
71697;BME280;68167;59.120;37.898;2023-04-27T02:52:27;99168.56;;;11.37;76.79
71697;BME280;68167;59.120;37.898;2023-04-27T02:54:54;99115.47;;;11.07;76.65
71697;BME280;68167;59.120;37.898;2023-04-27T02:57:20;99103.28;;;11.01;76.43
71697;BME280;68167;59.120;37.898;2023-04-27T02:59:47;99115.25;;;11.03;76.50
71697;BME280;68167;59.120;37.898;2023-04-27T03:02:13;99121.88;;;11.06;76.40
71697;BME280;68167;59.120;37.898;2023-04-27T03:04:40;99119.47;;;11.09;76.98
71697;BME280;68167;59.120;37.898;2023-04-27T03:07:07;99169.63;;;11.41;77.07
71697;BME280;68167;59.120;37.898;2023-04-27T03:09:33;99187.44;;;11.46;76.65
71697;BME280;68167;59.120;37.898;2023-04-27T03:12:00;99131.94;;;11.14;76.79
71697;BME280;68167;59.120;37.898;2023-04-27T03:14:28;99127.94;;;11.16;76.57
71697;BME280;68167;59.120;37.898;2023-04-27T03:16:54;99147.31;;;11.27;76.69
71697;BME280;68167;59.120;37.898;2023-04-27T03:19:22;99189.25;;;11.55;76.63
71697;BME280;68167;59.120;37.898;2023-04-27T03:21:50;99154.44;;;11.37;76.43
71697;BME280;68167;59.120;37.898;2023-04-27T03:24:17;99180.94;;;11.62;75.94
71697;BME280;68167;59.120;37.898;2023-04-27T03:26:43;99158.94;;;11.41;76.11
71697;BME280;68167;59.120;37.898;2023-04-27T03:29:10;99169.78;;;11.55;76.11
71697;BME280;68167;59.120;37.898;2023-04-27T03:31:37;99168.78;;;11.46;76.02
71697;BME280;68167;59.120;37.898;2023-04-27T03:34:03;99161.63;;;11.41;75.87
71697;BME280;68167;59.120;37.898;2023-04-27T03:36:30;99202.50;;;11.66;75.86
71697;BME280;68167;59.120;37.898;2023-04-27T03:38:57;99121.06;;;11.10;75.96
71697;BME280;68167;59.120;37.898;2023-04-27T03:41:24;99176.78;;;11.46;75.75
71697;BME280;68167;59.120;37.898;2023-04-27T03:43:51;99188.47;;;11.50;75.76
71697;BME280;68167;59.120;37.898;2023-04-27T03:46:18;99218.50;;;11.66;76.00
71697;BME280;68167;59.120;37.898;2023-04-27T03:48:45;99180.81;;;11.38;75.74
71697;BME280;68167;59.120;37.898;2023-04-27T03:51:13;99209.50;;;11.57;75.76
71697;BME280;68167;59.120;37.898;2023-04-27T03:53:42;99224.34;;;11.68;75.66
71697;BME280;68167;59.120;37.898;2023-04-27T03:56:08;99222.22;;;11.65;75.73
71697;BME280;68167;59.120;37.898;2023-04-27T03:58:35;99191.41;;;11.48;75.60
71697;BME280;68167;59.120;37.898;2023-04-27T04:01:16;99150.00;;;11.22;75.53
71697;BME280;68167;59.120;37.898;2023-04-27T04:03:44;99197.81;;;11.47;75.54
71697;BME280;68167;59.120;37.898;2023-04-27T04:06:12;99192.53;;;11.42;75.39
71697;BME280;68167;59.120;37.898;2023-04-27T04:08:39;99234.00;;;11.59;75.20
71697;BME280;68167;59.120;37.898;2023-04-27T04:11:05;99212.53;;;11.40;75.50
71697;BME280;68167;59.120;37.898;2023-04-27T04:13:32;99242.81;;;11.59;75.59
71697;BME280;68167;59.120;37.898;2023-04-27T04:16:00;99240.16;;;11.54;75.76
71697;BME280;68167;59.120;37.898;2023-04-27T04:18:27;99200.06;;;11.30;75.70
71697;BME280;68167;59.120;37.898;2023-04-27T04:20:53;99247.84;;;11.61;75.76
71697;BME280;68167;59.120;37.898;2023-04-27T04:23:20;99207.78;;;11.32;75.63
71697;BME280;68167;59.120;37.898;2023-04-27T04:25:46;99252.94;;;11.57;75.67
71697;BME280;68167;59.120;37.898;2023-04-27T04:28:15;99252.94;;;11.57;75.58
71697;BME280;68167;59.120;37.898;2023-04-27T04:30:42;99214.69;;;11.33;75.98
71697;BME280;68167;59.120;37.898;2023-04-27T04:33:08;99257.72;;;11.60;75.38
71697;BME280;68167;59.120;37.898;2023-04-27T04:35:39;99254.50;;;11.63;75.89
71697;BME280;68167;59.120;37.898;2023-04-27T04:38:09;99251.31;;;11.61;75.85
71697;BME280;68167;59.120;37.898;2023-04-27T04:40:39;99221.56;;;11.44;75.91
71697;BME280;68167;59.120;37.898;2023-04-27T04:43:07;99267.00;;;11.68;75.92
71697;BME280;68167;59.120;37.898;2023-04-27T04:45:33;99247.06;;;11.60;76.01
71697;BME280;68167;59.120;37.898;2023-04-27T04:48:00;99227.66;;;11.49;75.87
71697;BME280;68167;59.120;37.898;2023-04-27T04:50:27;99262.94;;;11.75;76.11
71697;BME280;68167;59.120;37.898;2023-04-27T04:52:54;99259.19;;;11.76;75.64
71697;BME280;68167;59.120;37.898;2023-04-27T04:55:21;99253.84;;;11.76;75.59
71697;BME280;68167;59.120;37.898;2023-04-27T04:57:47;99261.31;;;11.84;75.30
71697;BME280;68167;59.120;37.898;2023-04-27T05:00:14;99238.94;;;11.75;75.50
71697;BME280;68167;59.120;37.898;2023-04-27T05:02:40;99275.84;;;12.02;75.25
71697;BME280;68167;59.120;37.898;2023-04-27T05:05:07;99248.22;;;11.88;75.36
71697;BME280;68167;59.120;37.898;2023-04-27T05:07:34;99258.81;;;11.98;75.46
71697;BME280;68167;59.120;37.898;2023-04-27T05:10:00;99289.31;;;12.21;75.22
71697;BME280;68167;59.120;37.898;2023-04-27T05:12:29;99245.94;;;12.05;74.83
71697;BME280;68167;59.120;37.898;2023-04-27T05:14:56;99289.41;;;12.40;74.51
71697;BME280;68167;59.120;37.898;2023-04-27T05:17:22;99297.63;;;12.43;74.70
71697;BME280;68167;59.120;37.898;2023-04-27T05:19:48;99254.84;;;12.25;74.44
71697;BME280;68167;59.120;37.898;2023-04-27T05:22:15;99286.63;;;12.50;74.41
71697;BME280;68167;59.120;37.898;2023-04-27T05:24:41;99306.50;;;12.68;74.06
71697;BME280;68167;59.120;37.898;2023-04-27T05:27:08;99273.00;;;12.51;74.20
71697;BME280;68167;59.120;37.898;2023-04-27T05:29:34;99244.75;;;12.45;73.61
71697;BME280;68167;59.120;37.898;2023-04-27T05:32:00;99308.91;;;12.93;73.61
71697;BME280;68167;59.120;37.898;2023-04-27T05:34:27;99230.56;;;12.50;73.26
71697;BME280;68167;59.120;37.898;2023-04-27T05:36:53;99303.25;;;13.00;72.76
71697;BME280;68167;59.120;37.898;2023-04-27T05:39:19;99273.78;;;12.81;72.67
71697;BME280;68167;59.120;37.898;2023-04-27T05:41:46;99309.56;;;13.04;71.96
71697;BME280;68167;59.120;37.898;2023-04-27T05:44:12;99280.09;;;12.90;72.21
71697;BME280;68167;59.120;37.898;2023-04-27T05:46:39;99314.28;;;13.17;72.28
71697;BME280;68167;59.120;37.898;2023-04-27T05:49:05;99311.19;;;13.29;71.98
71697;BME280;68167;59.120;37.898;2023-04-27T05:51:32;99320.91;;;13.43;72.00
71697;BME280;68167;59.120;37.898;2023-04-27T05:53:58;99297.19;;;13.37;71.57
71697;BME280;68167;59.120;37.898;2023-04-27T05:56:26;99247.56;;;13.07;71.09
71697;BME280;68167;59.120;37.898;2023-04-27T05:58:53;99308.34;;;13.44;71.05
71697;BME280;68167;59.120;37.898;2023-04-27T06:01:19;99326.13;;;13.54;70.92
71697;BME280;68167;59.120;37.898;2023-04-27T06:03:46;99320.56;;;13.50;70.86
71697;BME280;68167;59.120;37.898;2023-04-27T06:06:12;99290.66;;;13.24;69.98
71697;BME280;68167;59.120;37.898;2023-04-27T06:08:39;99270.00;;;13.06;70.76
71697;BME280;68167;59.120;37.898;2023-04-27T06:11:05;99325.97;;;13.45;70.48
71697;BME280;68167;59.120;37.898;2023-04-27T06:13:32;99264.38;;;13.07;70.10
71697;BME280;68167;59.120;37.898;2023-04-27T06:16:00;99303.69;;;13.31;70.67
71697;BME280;68167;59.120;37.898;2023-04-27T06:18:26;99299.00;;;13.41;70.09
71697;BME280;68167;59.120;37.898;2023-04-27T06:20:57;99341.09;;;13.73;69.78
71697;BME280;68167;59.120;37.898;2023-04-27T06:23:24;99347.19;;;13.79;70.19
71697;BME280;68167;59.120;37.898;2023-04-27T06:25:50;99349.72;;;13.89;69.01
71697;BME280;68167;59.120;37.898;2023-04-27T06:28:17;99308.22;;;13.54;68.57
71697;BME280;68167;59.120;37.898;2023-04-27T06:30:43;99314.19;;;13.46;68.88
71697;BME280;68167;59.120;37.898;2023-04-27T06:33:10;99339.94;;;13.61;69.58
71697;BME280;68167;59.120;37.898;2023-04-27T06:35:36;99313.91;;;13.47;69.00
71697;BME280;68167;59.120;37.898;2023-04-27T06:38:02;99358.59;;;13.66;68.80
71697;BME280;68167;59.120;37.898;2023-04-27T06:40:29;99364.25;;;13.64;69.04
71697;BME280;68167;59.120;37.898;2023-04-27T06:42:55;99321.09;;;13.28;68.91
71697;BME280;68167;59.120;37.898;2023-04-27T06:45:21;99338.66;;;13.34;69.08
71697;BME280;68167;59.120;37.898;2023-04-27T06:47:48;99334.00;;;13.21;69.43
71697;BME280;68167;59.120;37.898;2023-04-27T06:50:14;99362.84;;;13.48;69.11
71697;BME280;68167;59.120;37.898;2023-04-27T06:52:41;99349.25;;;13.44;69.30
71697;BME280;68167;59.120;37.898;2023-04-27T06:55:08;99361.91;;;13.58;68.79
71697;BME280;68167;59.120;37.898;2023-04-27T06:57:34;99324.38;;;13.44;68.66
71697;BME280;68167;59.120;37.898;2023-04-27T07:00:01;99335.97;;;13.58;68.13
71697;BME280;68167;59.120;37.898;2023-04-27T07:02:32;99345.44;;;13.69;67.76
71697;BME280;68167;59.120;37.898;2023-04-27T07:04:59;99371.00;;;13.99;68.01
71697;BME280;68167;59.120;37.898;2023-04-27T07:07:25;99338.41;;;13.73;66.56
71697;BME280;68167;59.120;37.898;2023-04-27T07:09:52;99380.22;;;13.88;66.59
71697;BME280;68167;59.120;37.898;2023-04-27T07:12:21;99367.06;;;13.73;66.75
71697;BME280;68167;59.120;37.898;2023-04-27T07:14:48;99389.69;;;13.80;67.02
71697;BME280;68167;59.120;37.898;2023-04-27T07:17:16;99392.16;;;13.77;66.97
71697;BME280;68167;59.120;37.898;2023-04-27T07:19:42;99399.53;;;13.85;67.39
71697;BME280;68167;59.120;37.898;2023-04-27T07:22:08;99400.63;;;13.84;67.67
71697;BME280;68167;59.120;37.898;2023-04-27T07:24:35;99401.69;;;13.83;67.87
71697;BME280;68167;59.120;37.898;2023-04-27T07:27:01;99405.97;;;13.84;67.74
71697;BME280;68167;59.120;37.898;2023-04-27T07:29:29;99400.81;;;13.69;67.40
71697;BME280;68167;59.120;37.898;2023-04-27T07:31:55;99361.88;;;13.39;67.78
71697;BME280;68167;59.120;37.898;2023-04-27T07:34:22;99404.44;;;13.59;67.71
71697;BME280;68167;59.120;37.898;2023-04-27T07:36:50;99375.25;;;13.39;67.40
71697;BME280;68167;59.120;37.898;2023-04-27T07:39:17;99403.34;;;13.60;67.80
71697;BME280;68167;59.120;37.898;2023-04-27T07:41:43;99373.88;;;13.41;67.94
71697;BME280;68167;59.120;37.898;2023-04-27T07:44:09;99390.78;;;13.61;68.07
71697;BME280;68167;59.120;37.898;2023-04-27T07:46:37;99383.31;;;13.58;67.60
71697;BME280;68167;59.120;37.898;2023-04-27T07:49:03;99365.75;;;13.51;67.91
71697;BME280;68167;59.120;37.898;2023-04-27T07:51:30;99379.00;;;13.62;67.47
71697;BME280;68167;59.120;37.898;2023-04-27T07:53:56;99353.06;;;13.38;66.91
71697;BME280;68167;59.120;37.898;2023-04-27T07:56:23;99420.94;;;13.85;66.50
71697;BME280;68167;59.120;37.898;2023-04-27T07:58:49;99421.44;;;13.87;66.87
71697;BME280;68167;59.120;37.898;2023-04-27T08:01:15;99369.44;;;13.56;66.52
71697;BME280;68167;59.120;37.898;2023-04-27T08:03:42;99396.47;;;13.73;66.34
71697;BME280;68167;59.120;37.898;2023-04-27T08:06:08;99421.84;;;13.99;65.37
71697;BME280;68167;59.120;37.898;2023-04-27T08:08:35;99385.06;;;13.86;64.63
71697;BME280;68167;59.120;37.898;2023-04-27T08:11:01;99399.91;;;13.97;65.03
71697;BME280;68167;59.120;37.898;2023-04-27T08:13:28;99418.06;;;14.38;64.42
71697;BME280;68167;59.120;37.898;2023-04-27T08:15:54;99393.75;;;14.53;64.66
71697;BME280;68167;59.120;37.898;2023-04-27T08:18:24;99415.00;;;14.96;63.51
71697;BME280;68167;59.120;37.898;2023-04-27T08:20:50;99430.66;;;15.21;61.98
71697;BME280;68167;59.120;37.898;2023-04-27T08:23:17;99379.78;;;14.89;61.98
71697;BME280;68167;59.120;37.898;2023-04-27T08:25:43;99388.72;;;14.98;62.24
71697;BME280;68167;59.120;37.898;2023-04-27T08:28:10;99366.84;;;14.77;60.83
71697;BME280;68167;59.120;37.898;2023-04-27T08:30:40;99441.28;;;15.26;61.55
71697;BME280;68167;59.120;37.898;2023-04-27T08:33:07;99431.25;;;15.18;61.68
71697;BME280;68167;59.120;37.898;2023-04-27T08:35:33;99426.88;;;15.22;62.01
71697;BME280;68167;59.120;37.898;2023-04-27T08:38:00;99433.84;;;15.23;61.71
71697;BME280;68167;59.120;37.898;2023-04-27T08:40:26;99429.75;;;15.12;60.90
71697;BME280;68167;59.120;37.898;2023-04-27T08:42:57;99443.88;;;15.18;60.62
71697;BME280;68167;59.120;37.898;2023-04-27T08:45:24;99445.75;;;15.17;59.69
71697;BME280;68167;59.120;37.898;2023-04-27T08:47:51;99408.69;;;14.92;60.67
71697;BME280;68167;59.120;37.898;2023-04-27T08:50:18;99437.78;;;15.12;60.47
71697;BME280;68167;59.120;37.898;2023-04-27T08:52:46;99399.13;;;14.86;60.34
71697;BME280;68167;59.120;37.898;2023-04-27T08:55:13;99435.00;;;15.03;60.71
71697;BME280;68167;59.120;37.898;2023-04-27T08:57:40;99399.72;;;14.82;60.51
71697;BME280;68167;59.120;37.898;2023-04-27T09:00:07;99437.50;;;15.13;60.18
71697;BME280;68167;59.120;37.898;2023-04-27T09:02:45;99440.25;;;15.08;60.42
71697;BME280;68167;59.120;37.898;2023-04-27T09:05:19;99426.19;;;15.16;60.87
71697;BME280;68167;59.120;37.898;2023-04-27T09:08:00;99398.75;;;15.06;60.58
71697;BME280;68167;59.120;37.898;2023-04-27T09:10:27;99438.84;;;15.43;60.15
71697;BME280;68167;59.120;37.898;2023-04-27T09:12:58;99400.38;;;15.21;58.85
71697;BME280;68167;59.120;37.898;2023-04-27T09:15:26;99457.31;;;15.45;59.20
71697;BME280;68167;59.120;37.898;2023-04-27T09:17:54;99448.38;;;15.36;59.76
71697;BME280;68167;59.120;37.898;2023-04-27T09:20:21;99421.03;;;15.20;59.77
71697;BME280;68167;59.120;37.898;2023-04-27T09:22:51;99427.41;;;15.38;59.16
71697;BME280;68167;59.120;37.898;2023-04-27T09:25:25;99450.41;;;15.58;60.03
71697;BME280;68167;59.120;37.898;2023-04-27T09:27:53;99448.81;;;15.57;59.33
71697;BME280;68167;59.120;37.898;2023-04-27T09:30:20;99401.16;;;15.21;59.81
71697;BME280;68167;59.120;37.898;2023-04-27T09:32:58;99400.66;;;15.19;60.06
71697;BME280;68167;59.120;37.898;2023-04-27T09:35:26;99424.78;;;15.19;60.11
71697;BME280;68167;59.120;37.898;2023-04-27T09:37:54;99429.25;;;15.10;60.64
71697;BME280;68167;59.120;37.898;2023-04-27T09:40:22;99454.28;;;15.19;59.71
71697;BME280;68167;59.120;37.898;2023-04-27T09:42:56;99439.09;;;15.14;60.02
71697;BME280;68167;59.120;37.898;2023-04-27T09:45:24;99411.53;;;14.95;59.93
71697;BME280;68167;59.120;37.898;2023-04-27T09:47:51;99436.81;;;15.22;59.99
71697;BME280;68167;59.120;37.898;2023-04-27T09:50:18;99418.16;;;15.30;60.43
71697;BME280;68167;59.120;37.898;2023-04-27T09:52:45;99462.09;;;15.62;59.97
71697;BME280;68167;59.120;37.898;2023-04-27T09:55:22;99411.22;;;15.43;59.82
71697;BME280;68167;59.120;37.898;2023-04-27T10:00:47;99451.56;;;15.65;59.68
71697;BME280;68167;59.120;37.898;2023-04-27T10:09:00;99450.00;;;15.78;57.84
71697;BME280;68167;59.120;37.898;2023-04-27T10:11:43;99443.63;;;15.74;57.52
71697;BME280;68167;59.120;37.898;2023-04-27T10:14:17;99460.81;;;15.87;57.54
71697;BME280;68167;59.120;37.898;2023-04-27T10:16:45;99462.22;;;15.98;56.91
71697;BME280;68167;59.120;37.898;2023-04-27T10:19:12;99403.28;;;15.79;56.67
71697;BME280;68167;59.120;37.898;2023-04-27T10:21:56;99447.50;;;16.31;56.88
71697;BME280;68167;59.120;37.898;2023-04-27T10:24:35;99445.53;;;16.59;55.97
71697;BME280;68167;59.120;37.898;2023-04-27T10:27:04;99445.69;;;16.76;55.17
71697;BME280;68167;59.120;37.898;2023-04-27T10:29:37;99405.75;;;16.84;53.88
71697;BME280;68167;59.120;37.898;2023-04-27T10:32:18;99399.44;;;17.19;54.96
71697;BME280;68167;59.120;37.898;2023-04-27T10:34:46;99446.22;;;17.40;53.28
71697;BME280;68167;59.120;37.898;2023-04-27T10:37:14;99457.72;;;17.32;53.04
71697;BME280;68167;59.120;37.898;2023-04-27T10:39:42;99416.22;;;16.94;53.29
71697;BME280;68167;59.120;37.898;2023-04-27T10:42:08;99473.78;;;16.93;53.06
71697;BME280;68167;59.120;37.898;2023-04-27T10:44:36;99466.66;;;16.66;53.57
71697;BME280;68167;59.120;37.898;2023-04-27T10:47:13;99470.72;;;16.63;54.35
71697;BME280;68167;59.120;37.898;2023-04-27T10:49:40;99468.31;;;16.62;54.23
71697;BME280;68167;59.120;37.898;2023-04-27T10:52:07;99461.22;;;16.79;53.58
71697;BME280;68167;59.120;37.898;2023-04-27T10:54:37;99462.22;;;16.92;53.59
71697;BME280;68167;59.120;37.898;2023-04-27T10:57:07;99399.38;;;16.79;52.55
71697;BME280;68167;59.120;37.898;2023-04-27T10:59:34;99429.31;;;17.18;51.93
71697;BME280;68167;59.120;37.898;2023-04-27T11:02:02;99465.84;;;17.41;51.56
71697;BME280;68167;59.120;37.898;2023-04-27T11:04:38;99462.84;;;17.42;51.60
71697;BME280;68167;59.120;37.898;2023-04-27T11:07:08;99467.69;;;17.32;51.13
71697;BME280;68167;59.120;37.898;2023-04-27T11:09:36;99451.09;;;17.07;51.18
71697;BME280;68167;59.120;37.898;2023-04-27T11:12:10;99373.72;;;16.51;50.72
71697;BME280;68167;59.120;37.898;2023-04-27T11:14:37;99467.00;;;16.95;50.57
71697;BME280;68167;59.120;37.898;2023-04-27T11:17:04;99471.88;;;16.93;50.71
71697;BME280;68167;59.120;37.898;2023-04-27T11:19:30;99413.78;;;16.61;50.00
71697;BME280;68167;59.120;37.898;2023-04-27T11:22:05;99480.06;;;17.33;50.53
71697;BME280;68167;59.120;37.898;2023-04-27T11:24:32;99486.81;;;17.53;50.07
71697;BME280;68167;59.120;37.898;2023-04-27T11:26:58;99444.91;;;17.29;49.68
71697;BME280;68167;59.120;37.898;2023-04-27T11:29:25;99427.31;;;17.23;49.94
71697;BME280;68167;59.120;37.898;2023-04-27T11:31:51;99485.22;;;17.60;49.13
71697;BME280;68167;59.120;37.898;2023-04-27T11:34:20;99469.06;;;17.60;48.61
71697;BME280;68167;59.120;37.898;2023-04-27T11:37:00;99409.00;;;17.34;49.47
71697;BME280;68167;59.120;37.898;2023-04-27T11:39:32;99468.22;;;17.73;47.92
71697;BME280;68167;59.120;37.898;2023-04-27T11:42:21;99502.84;;;18.06;49.39
71697;BME280;68167;59.120;37.898;2023-04-27T11:47:22;99451.53;;;18.20;47.37
71697;BME280;68167;59.120;37.898;2023-04-27T11:49:51;99471.34;;;18.41;46.15
71697;BME280;68167;59.120;37.898;2023-04-27T11:52:17;99410.94;;;17.99;46.35
71697;BME280;68167;59.120;37.898;2023-04-27T11:54:52;99477.88;;;18.49;46.08
71697;BME280;68167;59.120;37.898;2023-04-27T11:57:25;99437.59;;;18.18;45.57
71697;BME280;68167;59.120;37.898;2023-04-27T11:59:52;99447.72;;;18.38;46.36
71697;BME280;68167;59.120;37.898;2023-04-27T12:02:19;99464.25;;;18.71;46.14
71697;BME280;68167;59.120;37.898;2023-04-27T12:04:50;99484.72;;;18.81;45.92
71697;BME280;68167;59.120;37.898;2023-04-27T12:07:17;99489.66;;;18.79;45.44
71697;BME280;68167;59.120;37.898;2023-04-27T12:09:44;99500.88;;;18.55;45.02
71697;BME280;68167;59.120;37.898;2023-04-27T12:12:11;99444.50;;;17.93;45.37
71697;BME280;68167;59.120;37.898;2023-04-27T12:14:39;99505.44;;;18.20;45.79
71697;BME280;68167;59.120;37.898;2023-04-27T12:17:05;99504.06;;;18.65;45.28
71697;BME280;68167;59.120;37.898;2023-04-27T12:19:32;99500.72;;;19.03;44.79
71697;BME280;68167;59.120;37.898;2023-04-27T12:21:59;99467.06;;;18.92;43.66
71697;BME280;68167;59.120;37.898;2023-04-27T12:24:25;99458.41;;;18.69;43.67
71697;BME280;68167;59.120;37.898;2023-04-27T12:26:51;99494.38;;;18.90;43.71
71697;BME280;68167;59.120;37.898;2023-04-27T12:29:18;99465.22;;;18.75;43.85
71697;BME280;68167;59.120;37.898;2023-04-27T12:31:45;99494.41;;;18.82;43.31
71697;BME280;68167;59.120;37.898;2023-04-27T12:34:12;99490.28;;;18.75;44.17
71697;BME280;68167;59.120;37.898;2023-04-27T12:36:38;99425.53;;;18.24;44.23
71697;BME280;68167;59.120;37.898;2023-04-27T12:39:15;99494.72;;;18.80;44.21
71697;BME280;68167;59.120;37.898;2023-04-27T12:41:43;99489.81;;;18.82;44.23
71697;BME280;68167;59.120;37.898;2023-04-27T12:44:10;99489.63;;;18.87;43.64
71697;BME280;68167;59.120;37.898;2023-04-27T12:46:38;99466.16;;;18.70;43.96
71697;BME280;68167;59.120;37.898;2023-04-27T12:49:05;99457.75;;;18.63;44.12
71697;BME280;68167;59.120;37.898;2023-04-27T12:51:32;99491.03;;;18.93;44.26
71697;BME280;68167;59.120;37.898;2023-04-27T12:53:59;99499.59;;;19.13;42.79
71697;BME280;68167;59.120;37.898;2023-04-27T12:56:27;99420.25;;;18.96;42.37
71697;BME280;68167;59.120;37.898;2023-04-27T12:58:54;99457.63;;;19.79;42.15
71697;BME280;68167;59.120;37.898;2023-04-27T13:01:21;99464.78;;;20.55;40.28
71697;BME280;68167;59.120;37.898;2023-04-27T13:03:51;99492.06;;;21.16;39.08